Eckerman, Michigan
Current Conditions -  °F | °C
As of 7:55 AM on Thursday 27 Nov 2014 (Local Time) from KERY Reporting Station
Clear Clear  
Wind Chill:   Ceiling: Unl
Heat Index: 16°   Visibility: 10mi
Dew Point: 12°   Wind: 8mph
Humidity: 86%   Direction: 320°NW
Pressure: 30.17"   Gusts: NA
Location:  46.37°N, 85.04°W
Report Text: KERY 271255Z AUTO 32007KT 10SM CLR M09/M11 A3017 RMK AO2 T10911111
Loading
Personal Weather Stations






























Interactive Weather Map New forecast layout! Learn more

10-Day Weather Forecast

Advertisements
Track Severe Weather on mobile